createdAt,value
2019-04-21T00:01:49.041Z,92.10
2019-04-21T00:04:30.431Z,92.20
2019-04-21T00:07:08.751Z,92.30
2019-04-21T00:09:39.718Z,92.30
2019-04-21T00:12:07.529Z,92.20
2019-04-21T00:14:30.351Z,92.10
2019-04-21T00:16:57.495Z,92.10
2019-04-21T00:19:34.935Z,92.20
2019-04-21T00:22:14.207Z,92.20
2019-04-21T00:24:46.047Z,92.10
2019-04-21T00:27:20.009Z,92.10
2019-04-21T00:29:51.816Z,92.10
2019-04-21T00:32:20.694Z,92.10
2019-04-21T00:34:34.748Z,92.30
2019-04-21T00:37:15.537Z,92.50
2019-04-21T00:40:02.229Z,92.90
2019-04-21T00:42:27.415Z,92.60
2019-04-21T00:44:51.982Z,92.60
2019-04-21T00:47:30.659Z,92.60
2019-04-21T00:50:00.372Z,92.60
2019-04-21T00:52:46.248Z,92.60
2019-04-21T00:55:33.942Z,92.80
2019-04-21T00:57:53.383Z,92.80
2019-04-21T01:00:18.787Z,92.90
2019-04-21T01:02:53.696Z,93.00
2019-04-21T01:05:16.593Z,92.90
2019-04-21T01:07:42.463Z,92.90
2019-04-21T01:10:09.603Z,92.90
2019-04-21T01:12:48.991Z,93.10
2019-04-21T01:15:27.672Z,93.10
2019-04-21T01:17:52.181Z,93.10
2019-04-21T01:20:13.268Z,93.20
2019-04-21T01:22:29.465Z,93.10
2019-04-21T01:25:08.944Z,93.30
2019-04-21T01:27:49.536Z,93.20
2019-04-21T01:30:22.227Z,93.30
2019-04-21T01:32:53.313Z,93.30
2019-04-21T01:35:21.046Z,93.30
2019-04-21T01:38:06.859Z,93.20
2019-04-21T01:40:29.638Z,93.20
2019-04-21T01:42:50.761Z,93.20
2019-04-21T01:45:24.592Z,93.10
2019-04-21T01:47:52.159Z,93.10
2019-04-21T01:50:23.697Z,93.30
2019-04-21T01:53:02.367Z,93.50
2019-04-21T01:55:45.536Z,93.50
2019-04-21T01:58:11.545Z,93.50
2019-04-21T02:03:40.630Z,93.30
2019-04-21T02:05:59.660Z,93.20
2019-04-21T02:08:21.683Z,93.10
2019-04-21T02:11:00.961Z,93.30
2019-04-21T02:13:23.271Z,93.60
2019-04-21T02:16:02.066Z,93.80
2019-04-21T02:18:33.446Z,93.90
2019-04-21T02:20:45.899Z,93.90
2019-04-21T02:23:34.391Z,93.70
2019-04-21T02:25:57.468Z,93.80
2019-04-21T02:28:36.822Z,93.90
2019-04-21T02:31:18.147Z,94.00
2019-04-21T02:33:45.859Z,94.10
2019-04-21T02:38:53.049Z,94.10
2019-04-21T02:41:09.412Z,94.00
2019-04-21T02:43:44.907Z,93.90
2019-04-21T02:46:19.595Z,93.90
2019-04-21T02:48:43.595Z,94.00
2019-04-21T02:51:23.409Z,94.00
2019-04-21T02:54:03.746Z,93.90
2019-04-21T02:56:18.461Z,93.90
2019-04-21T02:58:52.313Z,94.10
2019-04-21T03:01:24.569Z,94.00
2019-04-21T03:04:04.806Z,94.10
2019-04-21T03:07:09.634Z,94.10
2019-04-21T03:09:26.223Z,94.00
2019-04-21T03:11:56.482Z,94.10
2019-04-21T03:14:29.957Z,94.10
2019-04-21T03:16:40.158Z,94.20
2019-04-21T03:19:33.225Z,94.70
2019-04-21T03:21:57.376Z,94.50
2019-04-21T03:24:18.453Z,94.40
2019-04-21T03:27:01.866Z,94.30
2019-04-21T03:29:28.213Z,94.30
2019-04-21T03:32:14.426Z,94.50
2019-04-21T03:34:51.308Z,94.20
2019-04-21T03:39:31.041Z,94.40
2019-04-21T03:42:14.144Z,94.50
2019-04-21T03:44:43.630Z,94.50
2019-04-21T03:47:02.177Z,94.50
2019-04-21T03:52:08.440Z,94.60
2019-04-21T03:54:33.025Z,94.70
2019-04-21T03:57:11.250Z,94.80
2019-04-21T03:59:25.045Z,94.80
2019-04-21T04:02:31.199Z,94.60
2019-04-21T04:04:44.141Z,94.60
2019-04-21T04:07:33.782Z,94.60
2019-04-21T04:12:32.824Z,94.50
2019-04-21T04:15:22.864Z,94.60
2019-04-21T04:20:07.865Z,94.50
2019-04-21T04:30:12.417Z,94.40
2019-04-21T04:32:36.798Z,94.20
2019-04-21T04:35:14.490Z,94.20
2019-04-21T04:37:36.660Z,94.10
2019-04-21T04:40:21.536Z,93.90
2019-04-21T04:50:29.966Z,93.30
2019-04-21T04:53:12.771Z,93.40
2019-04-21T04:55:26.285Z,93.80
2019-04-21T04:57:59.264Z,93.40
2019-04-21T05:00:34.983Z,93.40
2019-04-21T05:02:56.567Z,93.30
2019-04-21T05:05:27.812Z,93.10
2019-04-21T05:10:38.491Z,92.80
2019-04-21T05:12:58.172Z,92.60
2019-04-21T05:15:42.595Z,92.50
2019-04-21T05:18:03.175Z,92.60
2019-04-21T05:22:55.481Z,92.40
2019-04-21T05:25:19.610Z,92.40
2019-04-21T05:27:48.280Z,92.40
2019-04-21T05:30:36.958Z,92.40
2019-04-21T05:33:07.116Z,92.10
2019-04-21T05:35:47.927Z,91.90
2019-04-21T05:38:22.348Z,91.90
2019-04-21T05:40:51.340Z,91.30
2019-04-21T05:43:28.412Z,91.10
2019-04-21T05:45:58.289Z,90.90
2019-04-21T05:51:00.466Z,90.40
2019-04-21T05:56:03.608Z,90.30
2019-04-21T05:58:33.377Z,89.90
2019-04-21T06:01:30.104Z,89.30
2019-04-21T06:06:28.946Z,88.00
2019-04-21T06:08:47.841Z,87.20
2019-04-21T06:11:28.973Z,86.30
2019-04-21T06:13:55.021Z,85.40
2019-04-21T06:16:28.646Z,84.80
2019-04-21T06:21:38.576Z,71.70
2019-04-21T06:24:13.179Z,57.50
2019-04-21T06:26:50.390Z,49.30
2019-04-21T06:29:09.168Z,45.00
2019-04-21T06:31:57.427Z,41.10
2019-04-21T06:34:00.242Z,38.20
2019-04-21T06:36:42.248Z,35.50
2019-04-21T06:41:39.721Z,33.10
2019-04-21T06:44:11.907Z,33.40
2019-04-21T06:49:24.172Z,32.40
2019-04-21T06:55:02.598Z,31.90
2019-04-21T06:59:55.567Z,31.10
2019-04-21T07:07:35.526Z,30.20
2019-04-21T07:10:11.102Z,30.30
2019-04-21T07:12:33.637Z,30.30
2019-04-21T07:14:59.102Z,30.50
2019-04-21T07:17:35.729Z,30.00
2019-04-21T07:20:06.928Z,29.80
2019-04-21T07:22:38.374Z,29.60
2019-04-21T07:25:08.639Z,29.40
2019-04-21T07:27:42.757Z,28.90
2019-04-21T07:30:28.100Z,28.40
2019-04-21T07:32:40.040Z,28.10
2019-04-21T07:35:09.740Z,28.10
2019-04-21T07:37:46.104Z,28.00
2019-04-21T07:40:05.465Z,28.10
2019-04-21T07:42:39.991Z,28.30
2019-04-21T07:45:06.445Z,27.80
2019-04-21T07:47:53.473Z,27.60
2019-04-21T07:50:27.433Z,27.70
2019-04-21T07:53:21.227Z,27.50
2019-04-21T07:58:17.717Z,26.90
2019-04-21T08:00:51.075Z,25.90
2019-04-21T08:03:23.674Z,25.20
2019-04-21T08:05:52.696Z,25.30
2019-04-21T08:08:15.947Z,25.30
2019-04-21T08:10:47.424Z,25.10
2019-04-21T08:13:28.774Z,23.60
2019-04-21T08:15:50.991Z,23.40
2019-04-21T08:18:21.048Z,24.00
2019-04-21T08:20:53.432Z,24.60
2019-04-21T08:23:29.931Z,24.20
2019-04-21T08:25:58.944Z,24.50
2019-04-21T08:28:28.450Z,24.30
2019-04-21T08:30:55.407Z,24.10
2019-04-21T08:33:33.750Z,24.40
2019-04-21T08:36:11.024Z,23.60
2019-04-21T08:38:28.697Z,24.40
2019-04-21T08:41:05.126Z,24.90
2019-04-21T08:43:37.066Z,25.00
2019-04-21T08:45:58.725Z,24.80
2019-04-21T08:48:29.456Z,25.10
2019-04-21T08:51:14.210Z,24.40
2019-04-21T08:53:33.989Z,24.90
2019-04-21T08:56:10.618Z,24.40
2019-04-21T08:58:57.562Z,24.90
2019-04-21T09:01:47.421Z,24.80
2019-04-21T09:04:17.181Z,24.50
2019-04-21T09:06:54.167Z,24.00
2019-04-21T09:11:46.146Z,23.10
2019-04-21T09:14:13.716Z,23.00
2019-04-21T09:16:41.122Z,23.40
2019-04-21T09:19:20.177Z,23.00
2019-04-21T09:24:16.660Z,23.00
2019-04-21T09:26:46.123Z,22.90
2019-04-21T09:29:07.725Z,22.50
2019-04-21T09:31:33.843Z,22.00
2019-04-21T09:34:02.724Z,22.00
2019-04-21T09:36:38.235Z,22.00
2019-04-21T09:39:08.696Z,21.50
2019-04-21T09:41:34.345Z,21.80
2019-04-21T09:44:01.733Z,21.60
2019-04-21T09:46:34.125Z,21.80
2019-04-21T09:49:05.910Z,22.20
2019-04-21T09:51:32.668Z,22.20
2019-04-21T09:54:08.237Z,21.50
2019-04-21T09:56:43.626Z,21.60
2019-04-21T09:59:11.431Z,21.80
2019-04-21T10:01:50.370Z,21.70
2019-04-21T10:04:05.630Z,21.00
2019-04-21T10:06:34.996Z,20.70
2019-04-21T10:09:07.641Z,21.20
2019-04-21T10:11:37.514Z,21.70
2019-04-21T10:14:07.431Z,21.30
2019-04-21T10:16:47.138Z,21.80
2019-04-21T10:19:15.973Z,22.20
2019-04-21T10:21:44.819Z,22.50
2019-04-21T10:24:13.717Z,23.00
2019-04-21T10:26:43.087Z,23.50
2019-04-21T10:29:16.978Z,24.30
2019-04-21T10:31:42.839Z,24.40
2019-04-21T10:34:11.802Z,24.80
2019-04-21T10:36:40.841Z,25.50
2019-04-21T10:39:09.848Z,24.80
2019-04-21T10:41:39.306Z,24.70
2019-04-21T10:44:09.352Z,24.60
2019-04-21T10:46:38.450Z,24.30
2019-04-21T10:49:08.554Z,24.60
2019-04-21T10:51:37.566Z,24.60
2019-04-21T10:54:06.478Z,24.90
2019-04-21T10:56:40.270Z,24.90
2019-04-21T10:59:05.770Z,25.30
2019-04-21T11:01:34.776Z,24.80
2019-04-21T11:04:07.498Z,24.90
2019-04-21T11:06:36.851Z,25.20
2019-04-21T11:09:10.503Z,25.10
2019-04-21T11:11:39.788Z,25.20
2019-04-21T11:14:08.764Z,25.40
2019-04-21T11:16:37.669Z,25.70
2019-04-21T11:19:07.535Z,25.30
2019-04-21T11:21:36.681Z,25.20
2019-04-21T11:24:06.060Z,25.30
2019-04-21T11:26:35.921Z,24.90
2019-04-21T11:29:05.252Z,25.10
2019-04-21T11:31:34.191Z,25.40
2019-04-21T11:34:03.076Z,25.20
2019-04-21T11:36:33.175Z,25.70
2019-04-21T11:39:29.231Z,25.60
2019-04-21T11:41:51.896Z,25.20
2019-04-21T11:44:24.253Z,25.40
2019-04-21T11:46:52.139Z,25.30
2019-04-21T11:49:22.254Z,26.00
2019-04-21T11:51:51.280Z,25.80
2019-04-21T11:54:24.678Z,25.50
2019-04-21T11:56:54.798Z,25.30
2019-04-21T11:59:23.908Z,25.30
2019-04-21T12:01:53.921Z,25.10
2019-04-21T12:04:23.476Z,25.50
2019-04-21T12:06:54.028Z,25.30
2019-04-21T12:09:23.141Z,25.00
2019-04-21T12:11:53.594Z,24.50
2019-04-21T12:14:23.813Z,24.60
2019-04-21T12:16:53.034Z,24.80
2019-04-21T12:19:22.900Z,25.10
2019-04-21T12:22:02.383Z,24.90
2019-04-21T12:24:22.819Z,24.80
2019-04-21T12:26:51.808Z,25.00
2019-04-21T12:29:20.872Z,24.60
2019-04-21T12:32:07.819Z,24.80
2019-04-21T12:34:36.653Z,24.90
2019-04-21T12:37:06.706Z,25.10
2019-04-21T12:39:36.891Z,25.30
2019-04-21T12:42:06.767Z,24.90
2019-04-21T12:44:37.069Z,24.20
2019-04-21T12:47:06.146Z,24.30
2019-04-21T12:49:35.887Z,24.40
2019-04-21T12:52:05.966Z,24.80
2019-04-21T12:54:35.494Z,24.70
2019-04-21T12:57:05.413Z,24.90
2019-04-21T12:59:35.868Z,25.20
2019-04-21T13:02:04.894Z,24.40
2019-04-21T13:04:33.741Z,24.90
2019-04-21T13:07:03.698Z,24.70
2019-04-21T13:09:34.264Z,24.60
2019-04-21T13:12:03.291Z,24.60
2019-04-21T13:14:32.153Z,24.50
2019-04-21T13:17:01.379Z,24.50
2019-04-21T13:19:31.527Z,24.70
2019-04-21T13:22:01.556Z,24.60
2019-04-21T13:24:31.723Z,24.70
2019-04-21T13:27:03.260Z,24.80
2019-04-21T13:29:32.291Z,24.80
2019-04-21T13:32:04.710Z,24.30
2019-04-21T13:34:31.923Z,24.40
2019-04-21T13:37:01.526Z,24.60
2019-04-21T13:40:01.791Z,24.30
2019-04-21T13:42:21.333Z,24.20
2019-04-21T13:44:44.597Z,24.10
2019-04-21T13:47:14.525Z,24.50
2019-04-21T13:49:43.507Z,24.80
2019-04-21T13:52:13.002Z,25.10
2019-04-21T13:54:43.190Z,24.40
2019-04-21T13:57:12.480Z,24.20
2019-04-21T13:59:42.264Z,24.80
2019-04-21T14:02:11.640Z,24.70
2019-04-21T14:04:43.193Z,25.10
2019-04-21T14:07:12.348Z,24.90
2019-04-21T14:09:50.222Z,25.00
2019-04-21T14:12:11.809Z,25.60
2019-04-21T14:14:41.934Z,25.20
2019-04-21T14:17:11.019Z,25.40
2019-04-21T14:19:39.882Z,25.50
2019-04-21T14:22:11.659Z,25.80
2019-04-21T14:24:39.278Z,25.30
2019-04-21T14:27:08.156Z,25.80
2019-04-21T14:29:37.662Z,25.40
2019-04-21T14:32:06.694Z,25.40
2019-04-21T14:34:35.629Z,26.50
2019-04-21T14:37:04.575Z,25.70
2019-04-21T14:39:35.720Z,26.00
2019-04-21T14:42:04.389Z,25.50
2019-04-21T14:44:33.609Z,25.50
2019-04-21T14:47:07.004Z,25.60
2019-04-21T14:49:55.209Z,25.80
2019-04-21T14:52:25.741Z,24.90
2019-04-21T14:54:59.047Z,24.30
2019-04-21T14:57:29.407Z,24.40
2019-04-21T14:59:58.382Z,24.30
2019-04-21T15:02:27.792Z,24.70
2019-04-21T15:04:57.816Z,24.00
2019-04-21T15:07:27.581Z,23.70
2019-04-21T15:10:04.632Z,23.70
2019-04-21T15:12:27.808Z,24.10
2019-04-21T15:14:58.035Z,24.10
2019-04-21T15:17:29.130Z,24.00
2019-04-21T15:20:04.464Z,23.60
2019-04-21T15:22:30.344Z,24.20
2019-04-21T15:25:00.594Z,23.70
2019-04-21T15:27:30.761Z,23.70
2019-04-21T15:40:28.142Z,23.10
2019-04-21T15:42:46.811Z,23.70
2019-04-21T15:45:16.767Z,23.70
2019-04-21T15:47:46.161Z,25.20
2019-04-21T15:50:19.397Z,24.40
2019-04-21T15:52:47.698Z,24.50
2019-04-21T15:55:21.369Z,24.20
2019-04-21T15:57:58.601Z,23.90
2019-04-21T16:00:46.836Z,24.10
2019-04-21T16:03:16.595Z,27.90
2019-04-21T16:05:46.722Z,29.10
2019-04-21T16:08:16.402Z,29.40
2019-04-21T16:10:52.903Z,29.60
2019-04-21T16:13:16.109Z,29.60
2019-04-21T16:15:46.262Z,29.60
2019-04-21T16:18:16.171Z,29.90
2019-04-21T16:20:45.965Z,30.30
2019-04-21T16:23:15.231Z,30.70
2019-04-21T16:25:44.369Z,30.80
2019-04-21T16:28:15.429Z,31.00
2019-04-21T16:30:44.701Z,31.20
2019-04-21T16:33:14.334Z,31.20
2019-04-21T16:35:44.296Z,31.20
2019-04-21T16:38:13.400Z,31.40
2019-04-21T16:40:51.873Z,31.60
2019-04-21T16:43:14.243Z,31.80
2019-04-21T16:45:44.452Z,31.80
2019-04-21T16:48:15.016Z,31.90
2019-04-21T16:50:44.089Z,31.80
2019-04-21T16:53:14.615Z,31.90
2019-04-21T16:56:39.926Z,32.20
2019-04-21T16:59:10.619Z,32.20
2019-04-21T17:01:40.674Z,32.30
2019-04-21T17:04:10.765Z,32.50
2019-04-21T17:06:40.872Z,32.50
2019-04-21T17:09:10.653Z,32.60
2019-04-21T17:11:43.618Z,32.80
2019-04-21T17:14:27.226Z,32.80
2019-04-21T17:17:04.006Z,32.90
2019-04-21T17:19:21.306Z,32.80
2019-04-21T17:21:43.585Z,33.00
2019-04-21T17:24:12.798Z,33.00
2019-04-21T17:26:44.140Z,33.40
2019-04-21T17:29:12.542Z,33.10
2019-04-21T17:31:41.513Z,33.20
2019-04-21T17:34:16.446Z,33.50
2019-04-21T17:36:41.259Z,33.70
2019-04-21T17:39:11.134Z,34.10
2019-04-21T17:41:54.116Z,34.80
2019-04-21T17:44:11.061Z,37.00
2019-04-21T17:46:47.777Z,37.80
2019-04-21T17:49:10.862Z,38.20
2019-04-21T17:51:53.719Z,38.60
2019-04-21T17:54:27.632Z,39.00
2019-04-21T17:57:10.980Z,39.20
2019-04-21T17:59:50.634Z,39.10
2019-04-21T18:02:10.982Z,39.20
2019-04-21T18:04:42.980Z,39.50
2019-04-21T18:07:27.238Z,39.60
2019-04-21T18:10:00.877Z,39.40
2019-04-21T18:12:25.039Z,40.50
2019-04-21T18:14:53.099Z,41.70
2019-04-21T18:17:12.001Z,41.00
2019-04-21T18:19:43.381Z,41.40
2019-04-21T18:22:32.137Z,41.40
2019-04-21T18:25:05.771Z,41.40
2019-04-21T18:27:29.739Z,42.10
2019-04-21T18:30:02.467Z,42.70
2019-04-21T18:32:35.992Z,43.00
2019-04-21T18:35:14.046Z,43.70
2019-04-21T18:38:08.038Z,44.60
2019-04-21T18:40:33.856Z,44.80
2019-04-21T18:43:37.887Z,45.20
2019-04-21T18:46:22.660Z,45.40
2019-04-21T18:48:21.900Z,46.60
2019-04-21T18:51:02.515Z,46.30
2019-04-21T18:53:44.824Z,47.10
2019-04-21T18:56:05.697Z,48.00
2019-04-21T18:58:32.568Z,48.60
2019-04-21T19:01:18.181Z,49.50
2019-04-21T19:03:47.000Z,50.10
2019-04-21T19:06:18.805Z,51.10
2019-04-21T19:09:08.665Z,52.00
2019-04-21T19:11:28.656Z,52.70
2019-04-21T19:16:58.882Z,54.00
2019-04-21T19:21:55.435Z,56.00
2019-04-21T19:26:59.372Z,57.20
2019-04-21T19:31:54.882Z,58.20
2019-04-21T19:34:16.262Z,58.70
2019-04-21T19:36:48.809Z,58.60
2019-04-21T19:39:16.332Z,59.70
2019-04-21T19:41:56.088Z,60.20
2019-04-21T19:44:26.272Z,60.90
2019-04-21T19:47:02.985Z,61.60
2019-04-21T19:49:35.091Z,62.50
2019-04-21T19:51:53.287Z,63.60
2019-04-21T19:54:23.978Z,64.20
2019-04-21T19:56:44.918Z,64.90
2019-04-21T19:59:25.268Z,66.10
2019-04-21T20:01:46.765Z,67.00
2019-04-21T20:04:16.683Z,68.00
2019-04-21T20:06:58.426Z,68.20
2019-04-21T20:09:32.430Z,68.40
2019-04-21T20:11:58.107Z,67.20
2019-04-21T20:14:51.061Z,67.70
2019-04-21T20:17:00.612Z,68.30
2019-04-21T20:19:21.063Z,69.40
2019-04-21T20:21:51.174Z,70.40
2019-04-21T20:24:26.521Z,71.30
2019-04-21T20:27:01.288Z,72.20
2019-04-21T20:29:37.767Z,73.50
2019-04-21T20:32:17.863Z,73.90
2019-04-21T20:34:47.757Z,73.80
2019-04-21T20:37:17.806Z,73.50
2019-04-21T20:39:28.335Z,74.00
2019-04-21T20:42:09.680Z,74.00
2019-04-21T20:44:42.304Z,72.90
2019-04-21T20:47:07.832Z,72.70
2019-04-21T20:49:37.511Z,73.50
2019-04-21T20:52:18.901Z,74.70
2019-04-21T20:54:45.434Z,75.40
2019-04-21T20:57:18.045Z,76.10
2019-04-21T20:59:42.437Z,76.70
2019-04-21T21:02:19.061Z,76.80
2019-04-21T21:04:40.306Z,77.00
2019-04-21T21:07:28.234Z,77.00
2019-04-21T21:09:57.738Z,76.90
2019-04-21T21:14:45.977Z,76.70
2019-04-21T21:17:34.261Z,76.90
2019-04-21T21:19:57.912Z,77.10
2019-04-21T21:22:14.163Z,76.90
2019-04-21T21:24:50.545Z,77.20
2019-04-21T21:27:19.170Z,77.70
2019-04-21T21:29:49.906Z,78.30
2019-04-21T21:32:27.430Z,79.00
2019-04-21T21:34:57.207Z,79.50
2019-04-21T21:37:34.802Z,79.80
2019-04-21T21:40:04.023Z,79.60
2019-04-21T21:42:11.879Z,79.60
2019-04-21T21:44:50.464Z,79.50
2019-04-21T21:47:24.196Z,78.60
2019-04-21T21:49:59.727Z,79.00
2019-04-21T21:52:30.409Z,79.10
2019-04-21T21:54:43.618Z,79.70
2019-04-21T22:01:02.279Z,80.60
2019-04-21T22:03:34.245Z,81.10
2019-04-21T22:06:05.010Z,81.20
2019-04-21T22:08:32.419Z,81.40
2019-04-21T22:11:01.490Z,81.30
2019-04-21T22:13:37.540Z,81.70
2019-04-21T22:16:13.988Z,81.60
2019-04-21T22:19:09.536Z,82.00
2019-04-21T22:24:33.490Z,81.90
2019-04-21T22:26:47.276Z,81.70
2019-04-21T22:29:16.453Z,82.10
2019-04-21T22:31:46.889Z,82.30
2019-04-21T22:34:17.987Z,82.80
2019-04-21T22:36:56.288Z,83.30
2019-04-21T22:39:35.034Z,83.90
2019-04-21T22:42:00.527Z,84.00
2019-04-21T22:44:18.963Z,84.00
2019-04-21T22:46:58.412Z,84.30
2019-04-21T22:49:19.950Z,84.60
2019-04-21T22:51:51.807Z,85.10
2019-04-21T22:54:25.710Z,85.20
2019-04-21T22:56:57.140Z,85.30
2019-04-21T22:59:22.913Z,85.40
2019-04-21T23:01:52.622Z,85.30
2019-04-21T23:04:25.443Z,85.30
2019-04-21T23:06:56.680Z,85.20
2019-04-21T23:09:24.614Z,85.20
2019-04-21T23:11:56.643Z,85.10
2019-04-21T23:14:25.761Z,85.50
2019-04-21T23:17:14.835Z,85.40
2019-04-21T23:19:38.869Z,84.80
2019-04-21T23:22:14.726Z,85.20
2019-04-21T23:24:49.977Z,85.90
2019-04-21T23:27:11.645Z,85.90
2019-04-21T23:29:57.357Z,85.90
2019-04-21T23:32:14.941Z,86.50
2019-04-21T23:34:36.149Z,86.60
2019-04-21T23:37:07.958Z,86.60
2019-04-21T23:39:32.809Z,86.60
2019-04-21T23:42:02.664Z,86.50
2019-04-21T23:44:32.946Z,86.70
2019-04-21T23:47:06.618Z,86.60
2019-04-21T23:49:43.063Z,86.70
2019-04-21T23:52:07.093Z,87.00
2019-04-21T23:54:33.783Z,87.40
2019-04-21T23:57:11.284Z,87.80
2019-04-21T23:59:41.615Z,88.00
